createdAt,value
2022-11-24T00:02:03.271Z,6.10
2022-11-24T00:04:31.484Z,6.10
2022-11-24T00:07:02.577Z,6.10
2022-11-24T00:09:30.111Z,6.10
2022-11-24T00:12:02.388Z,6.20
2022-11-24T00:14:33.767Z,6.10
2022-11-24T00:17:03.570Z,6.10
2022-11-24T00:19:35.598Z,6.10
2022-11-24T00:22:08.836Z,6.10
2022-11-24T00:24:39.364Z,6.00
2022-11-24T00:27:09.045Z,6.00
2022-11-24T00:29:43.940Z,6.10
2022-11-24T00:32:13.702Z,6.10
2022-11-24T00:34:49.676Z,6.10
2022-11-24T00:37:20.321Z,6.10
2022-11-24T00:39:53.226Z,6.10
2022-11-24T00:42:25.500Z,6.10
2022-11-24T00:44:58.113Z,6.10
2022-11-24T00:47:28.376Z,6.10
2022-11-24T00:50:02.399Z,6.10
2022-11-24T00:52:38.706Z,6.10
2022-11-24T00:55:12.721Z,6.10
2022-11-24T00:57:44.835Z,6.10
2022-11-24T01:00:15.588Z,6.10
2022-11-24T01:02:48.921Z,6.20
2022-11-24T01:05:20.705Z,6.20
2022-11-24T01:07:51.790Z,6.10
2022-11-24T01:10:23.242Z,6.20
2022-11-24T01:12:53.201Z,6.20
2022-11-24T01:15:22.431Z,6.20
2022-11-24T01:17:51.505Z,6.20
2022-11-24T01:20:22.054Z,6.20
2022-11-24T01:22:50.448Z,6.10
2022-11-24T01:25:18.268Z,6.20
2022-11-24T01:27:50.890Z,6.20
2022-11-24T01:30:21.458Z,6.20
2022-11-24T01:32:52.789Z,6.20
2022-11-24T01:35:24.646Z,6.20
2022-11-24T01:37:55.256Z,6.20
2022-11-24T01:40:24.452Z,6.20
2022-11-24T01:42:55.716Z,6.20
2022-11-24T01:45:44.047Z,6.10
2022-11-24T01:48:28.445Z,6.20
2022-11-24T01:51:12.552Z,6.20
2022-11-24T01:53:44.550Z,6.10
2022-11-24T01:56:17.510Z,6.20
2022-11-24T01:58:52.572Z,6.20
2022-11-24T02:01:22.342Z,6.20
2022-11-24T02:03:56.106Z,6.20
2022-11-24T02:06:32.524Z,6.20
2022-11-24T02:09:37.500Z,6.20
2022-11-24T02:12:08.976Z,6.20
2022-11-24T02:14:50.585Z,6.20
2022-11-24T02:17:22.712Z,6.30
2022-11-24T02:20:16.512Z,6.30
2022-11-24T02:22:55.212Z,6.30
2022-11-24T02:25:48.824Z,6.30
2022-11-24T02:28:20.981Z,6.30
2022-11-24T02:30:54.920Z,6.30
2022-11-24T02:33:27.645Z,6.30
2022-11-24T02:36:02.923Z,6.20
2022-11-24T02:38:46.079Z,6.30
2022-11-24T02:41:24.893Z,6.20
2022-11-24T02:44:02.462Z,6.20
2022-11-24T02:46:32.580Z,6.30
2022-11-24T02:49:03.335Z,6.20
2022-11-24T02:51:33.815Z,6.30
2022-11-24T02:54:04.761Z,6.20
2022-11-24T02:56:34.830Z,6.30
2022-11-24T02:59:06.541Z,6.30
2022-11-24T03:01:37.715Z,6.40
2022-11-24T03:04:08.137Z,6.40
2022-11-24T03:06:41.862Z,6.40
2022-11-24T03:09:13.802Z,6.40
2022-11-24T03:11:42.378Z,6.30
2022-11-24T03:14:13.795Z,6.30
2022-11-24T03:16:43.243Z,6.30
2022-11-24T03:19:21.037Z,6.30
2022-11-24T03:21:54.017Z,6.30
2022-11-24T03:24:28.428Z,6.30
2022-11-24T03:27:01.524Z,6.40
2022-11-24T03:29:34.755Z,6.40
2022-11-24T03:32:03.257Z,6.40
2022-11-24T03:34:33.933Z,6.40
2022-11-24T03:37:06.083Z,6.50
2022-11-24T03:39:34.491Z,6.50
2022-11-24T03:42:03.145Z,6.50
2022-11-24T03:44:33.733Z,6.50
2022-11-24T03:47:03.459Z,6.40
2022-11-24T03:49:33.958Z,6.40
2022-11-24T03:52:06.526Z,6.40
2022-11-24T03:54:37.463Z,6.40
2022-11-24T03:57:07.549Z,6.40
2022-11-24T03:59:40.895Z,6.40
2022-11-24T04:02:11.699Z,6.40
2022-11-24T04:04:49.640Z,6.40
2022-11-24T04:07:18.499Z,6.40
2022-11-24T04:09:47.665Z,6.40
2022-11-24T04:12:34.595Z,6.40
2022-11-24T04:15:04.311Z,6.40
2022-11-24T04:17:36.102Z,6.40
2022-11-24T04:20:11.184Z,6.30
2022-11-24T04:22:46.525Z,6.30
2022-11-24T04:25:17.831Z,6.30
2022-11-24T04:27:53.062Z,6.30
2022-11-24T04:30:25.844Z,6.30
2022-11-24T04:32:56.582Z,6.40
2022-11-24T04:35:30.291Z,6.40
2022-11-24T04:38:01.931Z,6.40
2022-11-24T04:40:32.754Z,6.40
2022-11-24T04:43:06.053Z,6.40
2022-11-24T04:45:35.006Z,6.40
2022-11-24T04:48:07.833Z,6.40
2022-11-24T04:50:42.627Z,6.40
2022-11-24T04:53:14.895Z,6.40
2022-11-24T04:55:44.516Z,6.40
2022-11-24T04:58:16.356Z,6.30
2022-11-24T05:00:45.202Z,6.40
2022-11-24T05:03:17.013Z,6.40
2022-11-24T05:05:47.900Z,6.30
2022-11-24T05:08:17.111Z,6.40
2022-11-24T05:10:48.233Z,6.40
2022-11-24T05:13:18.351Z,6.40
2022-11-24T05:15:48.342Z,6.40
2022-11-24T05:18:18.589Z,6.40
2022-11-24T05:20:47.290Z,6.40
2022-11-24T05:23:20.162Z,6.40
2022-11-24T05:25:48.633Z,6.40
2022-11-24T05:28:18.998Z,6.40
2022-11-24T05:30:49.000Z,6.40
2022-11-24T05:33:23.048Z,6.40
2022-11-24T05:35:55.540Z,6.40
2022-11-24T05:38:29.136Z,6.50
2022-11-24T05:41:06.157Z,6.40
2022-11-24T05:43:38.198Z,6.50
2022-11-24T05:46:06.545Z,6.50
2022-11-24T05:48:39.742Z,6.50
2022-11-24T05:51:12.200Z,6.50
2022-11-24T05:53:43.882Z,6.50
2022-11-24T05:56:15.700Z,6.50
2022-11-24T05:58:47.796Z,6.50
2022-11-24T06:01:15.587Z,6.50
2022-11-24T06:03:46.548Z,6.50
2022-11-24T06:06:18.721Z,6.50
2022-11-24T06:08:49.539Z,6.50
2022-11-24T06:11:24.917Z,6.50
2022-11-24T06:13:54.858Z,6.50
2022-11-24T06:16:29.397Z,6.50
2022-11-24T06:19:04.784Z,6.50
2022-11-24T06:21:40.431Z,6.50
2022-11-24T06:24:15.036Z,6.60
2022-11-24T06:26:48.059Z,6.50
2022-11-24T06:29:19.942Z,6.50
2022-11-24T06:34:32.120Z,6.70
2022-11-24T06:37:02.824Z,6.60
2022-11-24T06:39:34.067Z,6.60
2022-11-24T06:42:02.619Z,6.60
2022-11-24T06:44:34.113Z,6.60
2022-11-24T06:47:03.375Z,6.60
2022-11-24T06:49:35.058Z,6.60
2022-11-24T06:52:03.341Z,6.60
2022-11-24T06:54:42.704Z,6.60
2022-11-24T06:57:13.031Z,6.60
2022-11-24T06:59:44.296Z,6.70
2022-11-24T07:02:22.797Z,6.70
2022-11-24T07:04:52.921Z,6.70
2022-11-24T07:07:29.580Z,6.70
2022-11-24T07:10:01.272Z,6.70
2022-11-24T07:12:37.716Z,6.70
2022-11-24T07:15:10.374Z,6.70
2022-11-24T07:17:44.149Z,6.80
2022-11-24T07:20:23.170Z,6.80
2022-11-24T07:23:02.105Z,6.80
2022-11-24T07:25:34.095Z,6.80
2022-11-24T07:28:05.849Z,6.80
2022-11-24T07:30:39.409Z,6.80
2022-11-24T07:33:08.658Z,6.80
2022-11-24T07:35:40.131Z,6.80
2022-11-24T07:38:11.904Z,6.80
2022-11-24T07:40:47.100Z,6.90
2022-11-24T07:43:20.133Z,6.90
2022-11-24T07:45:55.117Z,6.90
2022-11-24T07:48:24.763Z,6.90
2022-11-24T07:50:57.774Z,6.80
2022-11-24T07:53:29.098Z,6.90
2022-11-24T07:56:03.342Z,6.90
2022-11-24T07:58:36.484Z,6.90
2022-11-24T08:01:19.975Z,6.90
2022-11-24T08:03:51.794Z,6.90
2022-11-24T08:06:51.811Z,6.90
2022-11-24T08:09:22.386Z,6.90
2022-11-24T08:11:52.916Z,6.90
2022-11-24T08:14:20.127Z,7.00
2022-11-24T08:16:50.467Z,6.90
2022-11-24T08:19:21.003Z,7.00
2022-11-24T08:21:53.310Z,6.90
2022-11-24T08:24:24.607Z,6.90
2022-11-24T08:26:53.856Z,7.00
2022-11-24T08:29:28.279Z,7.00
2022-11-24T08:32:02.593Z,7.00
2022-11-24T08:34:30.589Z,7.10
2022-11-24T08:39:39.365Z,7.10
2022-11-24T08:42:08.694Z,7.10
2022-11-24T08:44:38.071Z,7.10
2022-11-24T08:47:09.115Z,7.10
2022-11-24T08:49:40.159Z,7.10
2022-11-24T08:52:09.770Z,7.10
2022-11-24T08:54:45.547Z,7.10
2022-11-24T08:57:21.961Z,7.10
2022-11-24T08:59:52.061Z,7.10
2022-11-24T09:02:22.047Z,7.10
2022-11-24T09:04:53.875Z,7.10
2022-11-24T09:07:26.192Z,7.10
2022-11-24T09:09:55.652Z,7.20
2022-11-24T09:12:26.198Z,7.20
2022-11-24T09:14:58.506Z,7.20
2022-11-24T09:17:32.724Z,7.20
2022-11-24T09:20:06.092Z,7.20
2022-11-24T09:22:38.296Z,7.20
2022-11-24T09:25:12.715Z,7.30
2022-11-24T09:27:44.994Z,7.30
2022-11-24T09:30:16.411Z,7.40
2022-11-24T09:32:47.897Z,7.40
2022-11-24T09:35:19.449Z,7.40
2022-11-24T09:38:03.996Z,7.40
2022-11-24T09:40:36.116Z,7.40
2022-11-24T09:43:18.394Z,7.50
2022-11-24T09:46:22.161Z,7.50
2022-11-24T09:48:54.000Z,7.50
2022-11-24T09:51:27.524Z,7.50
2022-11-24T09:54:12.585Z,7.50
2022-11-24T09:56:46.533Z,7.50
2022-11-24T09:59:27.587Z,7.50
2022-11-24T10:01:59.434Z,7.50
2022-11-24T10:04:35.294Z,7.50
2022-11-24T10:07:23.936Z,7.50
2022-11-24T10:10:24.763Z,7.50
2022-11-24T10:13:48.834Z,7.50
2022-11-24T10:16:50.042Z,7.50
2022-11-24T10:19:37.108Z,7.50
2022-11-24T10:22:34.286Z,7.50
2022-11-24T10:25:09.806Z,7.50
2022-11-24T10:28:12.355Z,7.50
2022-11-24T10:30:44.650Z,7.50
2022-11-24T10:33:28.743Z,7.50
2022-11-24T10:36:08.312Z,7.50
2022-11-24T10:39:07.549Z,7.50
2022-11-24T10:42:15.681Z,7.50
2022-11-24T10:44:44.007Z,7.60
2022-11-24T10:47:37.914Z,7.60
2022-11-24T10:50:29.374Z,7.50
2022-11-24T10:53:51.629Z,7.60
2022-11-24T10:56:22.845Z,7.50
2022-11-24T10:58:53.708Z,7.60
2022-11-24T11:01:42.949Z,7.60
2022-11-24T11:04:30.256Z,7.60
2022-11-24T11:07:34.645Z,7.60
2022-11-24T11:10:25.014Z,7.60
2022-11-24T11:12:59.972Z,7.70
2022-11-24T11:15:35.572Z,7.70
2022-11-24T11:18:07.820Z,7.60
2022-11-24T11:20:39.497Z,7.70
2022-11-24T11:23:29.230Z,7.70
2022-11-24T11:26:36.204Z,7.80
2022-11-24T11:35:22.214Z,7.80
2022-11-24T11:37:54.979Z,7.90
2022-11-24T11:40:30.311Z,8.00
2022-11-24T11:43:28.804Z,8.00
2022-11-24T11:46:20.666Z,8.00
2022-11-24T11:48:48.808Z,8.10
2022-11-24T11:51:38.753Z,8.10
2022-11-24T11:54:37.897Z,8.20
2022-11-24T11:57:28.865Z,8.30
2022-11-24T12:00:13.091Z,8.30
2022-11-24T12:03:14.523Z,8.40
2022-11-24T12:06:19.694Z,8.40
2022-11-24T12:09:20.769Z,8.40
2022-11-24T12:12:17.537Z,8.40
2022-11-24T12:15:20.119Z,8.50
2022-11-24T12:18:55.401Z,8.50
2022-11-24T12:21:55.863Z,8.60
2022-11-24T12:24:51.306Z,8.60
2022-11-24T12:27:54.292Z,8.60
2022-11-24T12:30:25.167Z,8.70
2022-11-24T12:33:16.852Z,8.60
2022-11-24T12:35:55.240Z,8.70
2022-11-24T12:38:47.273Z,8.70
2022-11-24T12:44:32.428Z,8.70
2022-11-24T12:47:33.568Z,8.60
2022-11-24T12:50:23.890Z,8.70
2022-11-24T12:53:06.867Z,8.70
2022-11-24T12:55:37.206Z,8.80
2022-11-24T12:58:39.075Z,8.70
2022-11-24T13:01:24.958Z,8.80
2022-11-24T13:04:08.857Z,8.70
2022-11-24T13:07:02.653Z,8.80
2022-11-24T13:09:31.828Z,8.70
2022-11-24T13:12:18.431Z,8.70
2022-11-24T13:14:52.144Z,8.70
2022-11-24T13:17:58.445Z,8.70
2022-11-24T13:20:40.770Z,8.70
2022-11-24T13:23:27.306Z,8.80
2022-11-24T13:26:38.873Z,8.70
2022-11-24T13:29:36.773Z,8.80
2022-11-24T13:32:07.548Z,8.80
2022-11-24T13:35:05.737Z,8.80
2022-11-24T13:37:39.185Z,8.90
2022-11-24T13:40:34.340Z,8.90
2022-11-24T13:43:05.487Z,8.80
2022-11-24T13:45:52.848Z,8.80
2022-11-24T13:48:30.059Z,8.90
2022-11-24T13:51:11.207Z,8.90
2022-11-24T13:53:44.261Z,8.80
2022-11-24T13:56:24.067Z,8.90
2022-11-24T13:59:03.731Z,8.80
2022-11-24T14:01:38.079Z,8.80
2022-11-24T14:04:31.617Z,8.80
2022-11-24T14:07:14.230Z,8.80
2022-11-24T14:09:50.687Z,8.80
2022-11-24T14:12:31.753Z,8.80
2022-11-24T14:15:25.662Z,8.80
2022-11-24T14:18:08.640Z,8.80
2022-11-24T14:20:40.626Z,8.80
2022-11-24T14:23:14.358Z,8.80
2022-11-24T14:25:57.110Z,8.80
2022-11-24T14:28:33.584Z,8.80
2022-11-24T14:31:19.148Z,8.70
2022-11-24T14:33:56.133Z,8.80
2022-11-24T14:36:28.038Z,8.80
2022-11-24T14:38:56.954Z,8.60
2022-11-24T14:41:31.870Z,8.60
2022-11-24T14:44:29.264Z,8.60
2022-11-24T14:47:31.669Z,8.60
2022-11-24T14:50:16.173Z,8.60
2022-11-24T14:53:00.492Z,8.50
2022-11-24T14:55:34.132Z,8.60
2022-11-24T14:58:02.046Z,8.50
2022-11-24T15:00:34.309Z,8.40
2022-11-24T15:03:23.904Z,8.50
2022-11-24T15:06:00.376Z,8.40
2022-11-24T15:08:40.023Z,8.40
2022-11-24T15:11:10.750Z,8.40
2022-11-24T15:13:40.039Z,8.40
2022-11-24T15:16:21.288Z,8.30
2022-11-24T15:18:59.384Z,8.30
2022-11-24T15:21:42.973Z,8.30
2022-11-24T15:24:21.165Z,8.40
2022-11-24T15:26:50.977Z,8.40
2022-11-24T15:29:22.834Z,8.40
2022-11-24T15:31:53.071Z,8.40
2022-11-24T15:34:25.821Z,8.40
2022-11-24T15:36:57.132Z,8.40
2022-11-24T15:39:26.595Z,8.40
2022-11-24T15:42:00.357Z,8.40
2022-11-24T15:44:33.854Z,8.40
2022-11-24T15:47:06.402Z,8.40
2022-11-24T15:49:39.366Z,8.30
2022-11-24T15:52:10.703Z,8.30
2022-11-24T15:54:39.726Z,8.30
2022-11-24T15:57:14.333Z,8.30
2022-11-24T15:59:46.474Z,8.30
2022-11-24T16:02:17.117Z,8.30
2022-11-24T16:04:49.150Z,8.20
2022-11-24T16:07:20.659Z,8.20
2022-11-24T16:09:55.508Z,8.20
2022-11-24T16:12:25.110Z,8.20
2022-11-24T16:14:55.372Z,8.30
2022-11-24T16:17:27.457Z,8.30
2022-11-24T16:20:00.843Z,8.30
2022-11-24T16:22:34.144Z,8.30
2022-11-24T16:25:07.403Z,8.40
2022-11-24T16:27:37.140Z,8.40
2022-11-24T16:30:11.427Z,8.40
2022-11-24T16:32:39.126Z,8.40
2022-11-24T16:35:10.345Z,8.40
2022-11-24T16:37:39.811Z,8.40
2022-11-24T16:40:12.145Z,8.40
2022-11-24T16:42:45.538Z,8.40
2022-11-24T16:45:16.551Z,8.40
2022-11-24T16:47:45.422Z,8.40
2022-11-24T16:50:15.752Z,8.40
2022-11-24T16:52:44.838Z,8.50
2022-11-24T16:55:17.373Z,8.50
2022-11-24T16:57:47.383Z,8.50
2022-11-24T17:00:20.075Z,8.40
2022-11-24T17:02:51.484Z,8.50
2022-11-24T17:05:24.824Z,8.50
2022-11-24T17:07:55.504Z,8.50
2022-11-24T17:10:26.802Z,8.50
2022-11-24T17:12:56.623Z,8.50
2022-11-24T17:15:35.650Z,8.50
2022-11-24T17:18:23.997Z,8.40
2022-11-24T17:21:01.118Z,8.40
2022-11-24T17:23:36.364Z,8.40
2022-11-24T17:26:21.244Z,8.40
2022-11-24T17:28:50.822Z,8.40
2022-11-24T17:31:31.448Z,8.40
2022-11-24T17:34:01.253Z,8.40
2022-11-24T17:36:33.227Z,8.30
2022-11-24T17:39:15.311Z,8.30
2022-11-24T17:41:53.695Z,8.30
2022-11-24T17:44:23.620Z,8.30
2022-11-24T17:46:52.277Z,8.30
2022-11-24T17:49:22.452Z,8.30
2022-11-24T17:51:53.462Z,8.20
2022-11-24T17:54:56.702Z,8.20
2022-11-24T17:57:19.807Z,8.20
2022-11-24T17:59:51.469Z,8.20
2022-11-24T18:02:22.773Z,8.20
2022-11-24T18:04:54.684Z,8.10
2022-11-24T18:07:23.482Z,8.00
2022-11-24T18:09:54.121Z,8.10
2022-11-24T18:12:28.654Z,8.10
2022-11-24T18:15:01.873Z,8.10
2022-11-24T18:17:33.369Z,8.10
2022-11-24T18:20:02.461Z,8.10
2022-11-24T18:23:04.086Z,8.10
2022-11-24T18:25:23.768Z,8.10
2022-11-24T18:27:54.797Z,8.10
2022-11-24T18:30:25.226Z,8.00
2022-11-24T18:32:55.401Z,8.00
2022-11-24T18:35:27.360Z,8.00
2022-11-24T18:37:58.709Z,8.00
2022-11-24T18:40:28.715Z,8.00
2022-11-24T18:43:00.412Z,8.00
2022-11-24T18:45:33.194Z,8.00
2022-11-24T18:48:06.299Z,7.90
2022-11-24T18:50:37.732Z,7.90
2022-11-24T18:53:05.702Z,7.90
2022-11-24T18:55:35.230Z,7.90
2022-11-24T18:58:04.413Z,7.90
2022-11-24T19:00:38.513Z,7.90
2022-11-24T19:03:11.821Z,8.00
2022-11-24T19:05:43.663Z,8.10
2022-11-24T19:08:15.568Z,8.10
2022-11-24T19:10:47.927Z,8.10
2022-11-24T19:13:20.677Z,8.10
2022-11-24T19:15:52.182Z,8.10
2022-11-24T19:18:24.895Z,8.10
2022-11-24T19:20:58.489Z,8.10
2022-11-24T19:23:25.965Z,8.10
2022-11-24T19:25:56.364Z,8.10
2022-11-24T19:28:29.343Z,8.10
2022-11-24T19:31:06.320Z,8.10
2022-11-24T19:33:35.564Z,8.10
2022-11-24T19:36:16.990Z,8.00
2022-11-24T19:38:58.635Z,8.00
2022-11-24T19:41:32.524Z,8.00
2022-11-24T19:44:02.558Z,8.10
2022-11-24T19:46:32.914Z,8.00
2022-11-24T19:49:08.474Z,8.00
2022-11-24T19:51:41.765Z,8.00
2022-11-24T19:54:14.139Z,8.00
2022-11-24T19:56:45.818Z,8.00
2022-11-24T19:59:16.445Z,8.00
2022-11-24T20:01:48.215Z,7.90
2022-11-24T20:04:23.314Z,8.00
2022-11-24T20:06:56.442Z,7.90
2022-11-24T20:09:28.303Z,7.90
2022-11-24T20:11:56.287Z,8.00
2022-11-24T20:14:27.046Z,8.00
2022-11-24T20:16:58.585Z,8.00
2022-11-24T20:19:32.754Z,8.00
2022-11-24T20:22:03.629Z,8.00
2022-11-24T20:24:36.299Z,8.00
2022-11-24T20:27:03.891Z,8.00
2022-11-24T20:29:36.362Z,8.00
2022-11-24T20:32:06.088Z,8.00
2022-11-24T20:34:39.748Z,8.00
2022-11-24T20:37:14.589Z,8.10
2022-11-24T20:42:29.817Z,8.10
2022-11-24T20:45:05.706Z,8.20
2022-11-24T20:47:37.797Z,8.20
2022-11-24T20:50:09.172Z,8.20
2022-11-24T20:52:39.779Z,8.20
2022-11-24T20:55:14.635Z,8.10
2022-11-24T20:57:45.592Z,8.10
2022-11-24T21:00:21.821Z,8.10
2022-11-24T21:02:59.229Z,8.10
2022-11-24T21:05:30.187Z,8.10
2022-11-24T21:07:57.622Z,8.10
2022-11-24T21:10:28.869Z,8.10
2022-11-24T21:12:58.482Z,8.10
2022-11-24T21:15:30.194Z,8.10
2022-11-24T21:17:58.557Z,8.10
2022-11-24T21:20:31.726Z,8.10
2022-11-24T21:23:09.132Z,8.10
2022-11-24T21:25:38.128Z,8.10
2022-11-24T21:28:08.684Z,8.10
2022-11-24T21:30:42.276Z,8.10
2022-11-24T21:33:12.682Z,8.10
2022-11-24T21:35:42.757Z,8.10
2022-11-24T21:38:14.902Z,8.20
2022-11-24T21:40:50.192Z,8.30
2022-11-24T21:43:21.428Z,8.20
2022-11-24T21:45:53.636Z,8.20
2022-11-24T21:48:25.155Z,8.20
2022-11-24T21:50:56.582Z,8.10
2022-11-24T21:53:29.050Z,8.10
2022-11-24T21:56:05.178Z,8.10
2022-11-24T21:58:37.128Z,8.10
2022-11-24T22:01:15.188Z,8.00
2022-11-24T22:03:44.709Z,8.00
2022-11-24T22:06:35.880Z,8.10
2022-11-24T22:09:03.415Z,8.10
2022-11-24T22:11:32.413Z,8.10
2022-11-24T22:14:09.550Z,8.10
2022-11-24T22:16:42.278Z,8.10
2022-11-24T22:19:13.289Z,8.10
2022-11-24T22:21:43.015Z,8.10
2022-11-24T22:24:14.782Z,8.10
2022-11-24T22:26:47.795Z,8.00
2022-11-24T22:29:22.174Z,8.00
2022-11-24T22:31:56.779Z,8.00
2022-11-24T22:34:28.231Z,7.90
2022-11-24T22:36:58.789Z,8.00
2022-11-24T22:39:31.053Z,8.00
2022-11-24T22:42:04.151Z,8.00
2022-11-24T22:44:44.963Z,8.00
2022-11-24T22:47:15.802Z,8.10
2022-11-24T22:49:48.801Z,8.10
2022-11-24T22:52:19.210Z,8.10
2022-11-24T22:54:54.449Z,8.10
2022-11-24T22:57:24.809Z,8.10
2022-11-24T22:59:53.924Z,8.10
2022-11-24T23:02:25.146Z,8.00
2022-11-24T23:04:57.797Z,8.00
2022-11-24T23:07:28.540Z,8.00
2022-11-24T23:10:03.680Z,8.00
2022-11-24T23:12:39.386Z,8.00
2022-11-24T23:15:13.517Z,8.00
2022-11-24T23:17:44.377Z,8.00
2022-11-24T23:20:16.951Z,8.00
2022-11-24T23:22:46.577Z,8.00
2022-11-24T23:25:22.560Z,8.00
2022-11-24T23:27:56.023Z,8.10
2022-11-24T23:30:26.526Z,8.00
2022-11-24T23:32:59.008Z,8.00
2022-11-24T23:35:30.195Z,8.00
2022-11-24T23:38:07.536Z,8.00
2022-11-24T23:40:36.913Z,8.00
2022-11-24T23:43:08.162Z,8.00
2022-11-24T23:45:47.499Z,7.90
2022-11-24T23:48:21.161Z,7.90
2022-11-24T23:50:50.740Z,7.80
2022-11-24T23:53:21.330Z,7.80
2022-11-24T23:56:04.000Z,7.80
2022-11-24T23:58:38.213Z,7.90
